Time;durP1;ratioP1;P1;durP2;ratioP2;P2;SDS_P1;SDS_P2;PMS_P1;PMS_P2;Temp;Humidity;BMP_temperature;BMP_pressure;BME280_temperature;BME280_humidity;BME280_pressure;Samples;Min_cycle;Max_cycle;Signal;HPM_P1;HPM_P2
2022/07/30 00:04:12;;;;;;;3.80;3.10;;;;;;;21.58;61.51;98888.44;238856;1190;140092;-59
2022/07/30 00:09:15;;;;;;;3.50;3.20;;;;;;;21.59;61.52;98880.04;238857;1190;140131;-60
2022/07/30 00:14:18;;;;;;;3.60;3.10;;;;;;;21.57;61.57;98879.15;238863;1191;139535;-58
2022/07/30 00:19:21;;;;;;;4.10;3.20;;;;;;;21.53;61.48;98875.09;238847;1190;139196;-59
2022/07/30 00:24:25;;;;;;;4.90;3.00;;;;;;;21.48;61.53;98872.39;238563;1190;139454;-63
2022/07/30 00:29:28;;;;;;;5.60;3.30;;;;;;;21.47;61.58;98860.70;238826;1190;140212;-58
2022/07/30 00:34:31;;;;;;;6.30;3.40;;;;;;;21.51;61.66;98851.36;238719;1192;139707;-59
2022/07/30 00:39:34;;;;;;;6.30;3.30;;;;;;;21.51;61.70;98840.30;238805;1190;140081;-58
2022/07/30 00:44:37;;;;;;;4.20;2.90;;;;;;;21.49;61.73;98833.98;238867;1190;140233;-59
2022/07/30 00:49:42;;;;;;;7.40;3.30;;;;;;;21.46;61.63;98828.72;238767;1192;139413;-59
2022/07/30 00:54:46;;;;;;;4.80;2.90;;;;;;;21.42;61.67;98825.51;238596;1192;139382;-60
2022/07/30 00:59:49;;;;;;;5.20;2.90;;;;;;;21.45;61.82;98817.85;238915;1191;139825;-58
2022/07/30 01:04:52;;;;;;;3.30;2.90;;;;;;;21.45;61.70;98811.53;238805;1190;139203;-59
2022/07/30 01:09:54;;;;;;;4.00;2.90;;;;;;;21.44;61.80;98807.06;238763;1190;139733;-59
2022/07/30 01:14:58;;;;;;;3.60;2.90;;;;;;;21.43;61.86;98806.90;238884;1190;140069;-60
2022/07/30 01:20:21;;;;;;;4.80;3.10;;;;;;;21.40;62.01;98799.78;238729;1191;140487;-59
2022/07/30 01:25:30;;;;;;;3.90;2.90;;;;;;;21.38;62.01;98792.64;238805;1191;138777;-60
2022/07/30 01:30:39;;;;;;;4.60;3.20;;;;;;;21.39;62.14;98797.79;238494;1192;139743;-59
2022/07/30 01:35:45;;;;;;;5.00;3.20;;;;;;;21.40;62.16;98797.59;238512;1191;140659;-59
2022/07/30 01:40:50;;;;;;;5.50;3.40;;;;;;;21.41;62.17;98790.14;238447;1191;139820;-59
2022/07/30 01:45:54;;;;;;;4.40;3.50;;;;;;;21.39;62.33;98782.01;238824;1191;139913;-59
2022/07/30 01:51:02;;;;;;;6.80;3.70;;;;;;;21.42;62.45;98775.16;238695;1190;139049;-58
2022/07/30 01:56:10;;;;;;;5.50;3.70;;;;;;;21.42;62.31;98768.20;238637;1191;138953;-60
2022/07/30 02:01:14;;;;;;;5.20;3.30;;;;;;;21.41;62.34;98767.48;238646;1191;140370;-60
2022/07/30 02:06:25;;;;;;;4.90;3.90;;;;;;;21.43;62.36;98763.50;238647;1192;139722;-60
2022/07/30 02:16:57;;;;;;;6.70;4.20;;;;;;;21.50;62.53;98754.45;238683;1192;140384;-59
2022/07/30 02:22:09;;;;;;;9.10;5.00;;;;;;;21.48;62.47;98751.57;238310;1191;139333;-60
2022/07/30 02:27:29;;;;;;;14.60;4.30;;;;;;;21.44;62.46;98749.11;238254;1192;139422;-60
2022/07/30 02:32:37;;;;;;;6.10;3.50;;;;;;;21.43;62.49;98750.17;238654;1190;140352;-58
2022/07/30 02:37:42;;;;;;;9.10;3.70;;;;;;;21.44;62.54;98739.92;238758;1190;140170;-60
2022/07/30 02:42:48;;;;;;;6.10;4.60;;;;;;;21.45;62.47;98735.38;238717;1191;139203;-60
2022/07/30 02:48:00;;;;;;;6.40;4.70;;;;;;;21.44;62.62;98739.20;238794;1191;140118;-60
2022/07/30 02:53:07;;;;;;;8.20;6.10;;;;;;;21.44;62.65;98733.98;238572;1190;139396;-58
2022/07/30 02:58:11;;;;;;;5.60;4.40;;;;;;;21.42;62.67;98733.65;238867;1190;139503;-58
2022/07/30 03:03:15;;;;;;;7.00;4.90;;;;;;;21.43;62.53;98738.29;238666;1190;140481;-55
2022/07/30 03:08:20;;;;;;;8.30;5.00;;;;;;;21.46;62.62;98745.55;238814;1190;139843;-59
2022/07/30 03:13:23;;;;;;;7.00;4.80;;;;;;;21.48;62.80;98740.54;238763;1190;139017;-59
2022/07/30 03:18:32;;;;;;;7.90;6.50;;;;;;;21.50;62.77;98743.42;238968;1190;140252;-59
2022/07/30 03:23:38;;;;;;;7.30;6.10;;;;;;;21.49;62.88;98747.30;238936;1190;138900;-60
2022/07/30 03:28:42;;;;;;;8.20;6.00;;;;;;;21.47;62.77;98745.70;238654;1190;139345;-58
2022/07/30 03:33:46;;;;;;;6.40;5.80;;;;;;;21.48;62.89;98749.21;238854;1190;139803;-60
2022/07/30 03:38:50;;;;;;;9.90;6.60;;;;;;;21.52;62.95;98743.59;238620;1192;139895;-60
2022/07/30 03:43:54;;;;;;;8.60;7.50;;;;;;;21.54;62.99;98746.43;238792;1190;138921;-59
2022/07/30 03:48:58;;;;;;;9.50;7.40;;;;;;;21.55;63.00;98750.61;238720;1190;139159;-59
2022/07/30 03:54:03;;;;;;;8.70;7.60;;;;;;;21.55;63.03;98753.05;238731;1190;139147;-59
2022/07/30 03:59:15;;;;;;;8.60;7.40;;;;;;;21.51;62.97;98755.60;238901;1191;140090;-59
2022/07/30 04:04:18;;;;;;;11.40;7.10;;;;;;;21.52;63.06;98759.87;238752;1191;140660;-60
2022/07/30 04:09:24;;;;;;;;;;;;;;;21.54;63.08;98772.02;238630;1190;139905;-59
2022/07/30 04:14:39;;;;;;;9.20;7.10;;;;;;;21.55;63.12;98774.83;238918;1190;125218;-60
2022/07/30 04:19:48;;;;;;;9.50;7.20;;;;;;;21.56;63.27;98772.98;238838;1190;140194;-60
2022/07/30 04:24:52;;;;;;;13.30;7.70;;;;;;;21.57;63.22;98773.93;238557;1192;142517;-60
2022/07/30 04:29:56;;;;;;;12.70;6.00;;;;;;;21.55;63.18;98775.95;238650;1192;139095;-60
2022/07/30 04:34:59;;;;;;;9.60;6.80;;;;;;;21.57;63.31;98775.90;238720;1192;140591;-60
2022/07/30 04:40:21;;;;;;;13.00;6.30;;;;;;;21.62;63.33;98770.79;238660;1192;139504;-59
2022/07/30 04:45:25;;;;;;;11.90;6.30;;;;;;;21.68;63.37;98769.79;238302;1192;139455;-58
2022/07/30 04:50:42;;;;;;;8.60;7.00;;;;;;;21.71;63.30;98773.03;238351;1192;140151;-60
2022/07/30 04:55:48;;;;;;;11.10;7.10;;;;;;;21.71;63.33;98777.55;238306;1192;141249;-59
2022/07/30 05:00:54;;;;;;;9.10;6.30;;;;;;;21.70;63.39;98772.39;238276;1192;142582;-59
2022/07/30 05:06:01;;;;;;;8.80;5.70;;;;;;;21.75;63.48;98777.48;238712;1192;140465;-59
2022/07/30 05:11:11;;;;;;;8.60;6.50;;;;;;;21.81;63.54;98781.47;238691;1190;140053;-60
2022/07/30 05:16:14;;;;;;;7.90;6.90;;;;;;;21.86;63.61;98769.30;238615;1192;139592;-59
2022/07/30 05:21:18;;;;;;;11.40;7.60;;;;;;;21.90;63.54;98768.31;238725;1192;140105;-56
2022/07/30 05:26:23;;;;;;;8.80;7.60;;;;;;;21.93;63.54;98777.16;238585;1191;139273;-59
2022/07/30 05:31:31;;;;;;;8.40;6.40;;;;;;;21.96;63.57;98777.02;238544;1192;138939;-59
2022/07/30 05:36:37;;;;;;;8.60;7.20;;;;;;;21.99;63.58;98775.09;238457;1192;140418;-59
2022/07/30 05:41:40;;;;;;;10.80;8.10;;;;;;;22.09;63.61;98776.17;238587;1192;140064;-59
2022/07/30 05:46:56;;;;;;;13.80;9.10;;;;;;;22.18;63.74;98773.33;238575;1192;139696;-59
2022/07/30 05:52:00;;;;;;;11.70;8.10;;;;;;;22.23;63.55;98782.64;238782;1190;138880;-59
2022/07/30 05:57:03;;;;;;;11.00;8.20;;;;;;;22.27;63.54;98788.06;238286;1192;139629;-58
2022/07/30 06:02:08;;;;;;;10.80;7.30;;;;;;;22.29;63.47;98791.07;238215;1192;139878;-59
2022/07/30 06:07:40;;;;;;;7.30;6.10;;;;;;;22.37;63.57;98786.33;237808;1193;141148;-59
2022/07/30 06:12:43;;;;;;;12.40;7.50;;;;;;;22.43;63.51;98781.23;238138;1192;141063;-59
2022/07/30 06:17:47;;;;;;;11.80;7.60;;;;;;;22.49;63.58;98775.67;238622;1192;139531;-59
2022/07/30 06:23:24;;;;;;;9.90;7.90;;;;;;;22.55;63.52;98770.16;238778;1190;139707;-59
2022/07/30 06:28:56;;;;;;;12.70;8.50;;;;;;;22.59;63.58;98771.25;238220;1193;139267;-60
2022/07/30 06:34:04;;;;;;;8.50;7.20;;;;;;;22.66;63.52;98776.98;238578;1190;139669;-60
2022/07/30 06:39:11;;;;;;;9.70;8.00;;;;;;;22.76;63.57;98772.35;238600;1190;140681;-59
2022/07/30 06:44:34;;;;;;;11.30;8.40;;;;;;;22.87;63.50;98766.85;238717;1191;139741;-58
2022/07/30 06:49:56;;;;;;;12.40;9.30;;;;;;;23.01;63.49;98761.20;238667;1192;140203;-59
2022/07/30 06:55:00;;;;;;;12.60;8.80;;;;;;;23.11;63.39;98752.66;238472;1190;140324;-59
2022/07/30 07:00:15;;;;;;;15.60;9.50;;;;;;;23.16;63.18;98745.43;238686;1192;140060;-60
2022/07/30 07:05:21;;;;;;;11.30;8.30;;;;;;;23.21;63.13;98735.10;238418;1192;140297;-60
2022/07/30 07:10:26;;;;;;;11.20;8.30;;;;;;;23.27;63.03;98741.36;238237;1192;140083;-62
2022/07/30 07:15:49;;;;;;;11.90;7.50;;;;;;;23.34;62.76;98744.89;238467;1192;140043;-59
2022/07/30 07:20:54;;;;;;;14.50;8.20;;;;;;;23.37;62.69;98741.11;238641;1191;139211;-59
2022/07/30 07:25:57;;;;;;;12.10;8.50;;;;;;;23.41;62.65;98733.35;238638;1190;139053;-58
2022/07/30 07:31:01;;;;;;;17.20;8.90;;;;;;;23.46;62.69;98729.70;238521;1190;139509;-61
2022/07/30 07:36:05;;;;;;;11.50;7.80;;;;;;;23.43;62.34;98730.08;238777;1190;139615;-59
2022/07/30 07:41:09;;;;;;;11.10;7.30;;;;;;;23.39;62.12;98732.55;238487;1190;140615;-59
2022/07/30 07:46:15;;;;;;;7.50;6.70;;;;;;;23.39;62.22;98730.35;238645;1190;139891;-59
2022/07/30 07:51:35;;;;;;;8.70;6.50;;;;;;;23.42;62.30;98727.46;238662;1191;139599;-60
2022/07/30 07:56:54;;;;;;;16.70;6.70;;;;;;;23.43;62.19;98718.11;238616;1190;140092;-59
2022/07/30 08:02:07;;;;;;;;;;;;;;;23.43;62.04;98709.13;238719;1190;140532;-59
2022/07/30 08:07:33;;;;;;;8.60;5.70;;;;;;;23.37;62.01;98696.19;238581;1190;125247;-60
2022/07/30 08:12:55;;;;;;;8.40;6.10;;;;;;;23.41;62.31;98688.38;238689;1190;140142;-59
2022/07/30 08:18:11;;;;;;;7.70;5.40;;;;;;;23.48;62.38;98681.33;238754;1190;140523;-61
2022/07/30 08:23:21;;;;;;;9.00;5.70;;;;;;;23.54;62.29;98683.52;238649;1190;140000;-60
2022/07/30 08:28:24;;;;;;;5.20;3.80;;;;;;;23.57;62.10;98681.77;238599;1190;138984;-59
2022/07/30 08:33:38;;;;;;;9.50;5.10;;;;;;;23.68;61.98;98683.37;237943;1191;139046;-59
2022/07/30 08:38:41;;;;;;;5.80;5.10;;;;;;;23.77;61.84;98679.54;238512;1192;139086;-60
2022/07/30 08:43:48;;;;;;;6.40;4.70;;;;;;;23.84;61.54;98685.63;238667;1192;140306;-58
2022/07/30 08:48:52;;;;;;;7.90;5.30;;;;;;;23.90;61.50;98685.05;238476;1192;139664;-60
2022/07/30 08:53:56;;;;;;;6.90;6.10;;;;;;;23.99;61.29;98682.28;238805;1190;140094;-59
2022/07/30 08:59:00;;;;;;;8.60;5.60;;;;;;;24.04;61.09;98684.59;238654;1190;140601;-60
2022/07/30 09:04:03;;;;;;;9.20;6.00;;;;;;;24.12;61.13;98676.54;238615;1192;139411;-58
2022/07/30 09:09:07;;;;;;;7.50;5.70;;;;;;;24.19;61.06;98663.90;238674;1190;139866;-60
2022/07/30 09:14:13;;;;;;;8.40;5.20;;;;;;;24.28;61.01;98654.09;238658;1190;139675;-59
2022/07/30 09:19:23;;;;;;;6.80;5.60;;;;;;;24.35;60.79;98650.40;238443;1192;140229;-59
2022/07/30 09:24:26;;;;;;;7.40;5.60;;;;;;;24.43;60.70;98646.51;238586;1190;139631;-59
2022/07/30 09:29:58;;;;;;;10.50;5.10;;;;;;;24.51;60.62;98641.52;238307;1191;140005;-60
2022/07/30 09:35:21;;;;;;;8.10;5.30;;;;;;;24.59;60.60;98630.16;238284;1192;140261;-60
2022/07/30 09:40:50;;;;;;;9.50;5.40;;;;;;;24.65;60.46;98633.28;238547;1190;139717;-59
2022/07/30 09:46:46;;;;;;;8.30;5.50;;;;;;;24.69;60.42;98635.19;238446;1190;139566;-60
2022/07/30 09:51:55;;;;;;;7.20;5.40;;;;;;;24.71;60.18;98632.28;238231;1192;139469;-60
2022/07/30 09:57:08;;;;;;;6.70;5.00;;;;;;;24.73;60.00;98634.36;238070;1191;141380;-59
2022/07/30 10:02:30;;;;;;;7.70;5.00;;;;;;;24.73;59.91;98638.51;238627;1190;139843;-59
2022/07/30 10:07:56;;;;;;;5.90;4.60;;;;;;;24.74;59.78;98637.42;238697;1190;140559;-59
2022/07/30 10:13:01;;;;;;;10.10;5.10;;;;;;;24.75;59.78;98640.31;238621;1190;139774;-59
2022/07/30 10:18:07;;;;;;;9.70;6.50;;;;;;;24.81;59.69;98632.27;238659;1190;140313;-59
2022/07/30 10:23:19;;;;;;;8.30;6.00;;;;;;;24.90;59.71;98631.73;238778;1190;138764;-60
2022/07/30 10:28:54;;;;;;;9.90;6.80;;;;;;;25.00;59.67;98632.27;238717;1190;139828;-60
2022/07/30 10:34:06;;;;;;;13.10;7.40;;;;;;;25.16;59.86;98634.68;238680;1190;140143;-60
2022/07/30 10:39:12;;;;;;;;;;;;;;;25.37;59.53;98630.38;238800;1190;141509;-59
2022/07/30 10:44:30;;;;;;;9.30;6.40;;;;;;;25.51;59.54;98626.20;238638;1192;127191;-60
2022/07/30 10:49:34;;;;;;;8.20;6.00;;;;;;;25.63;59.16;98627.98;238701;1190;139360;-58
2022/07/30 10:54:46;;;;;;;7.40;5.20;;;;;;;25.70;59.04;98626.38;238593;1191;141746;-61
2022/07/30 10:59:54;;;;;;;9.00;5.50;;;;;;;25.87;58.80;98615.79;238649;1192;139784;-60
2022/07/30 11:05:21;;;;;;;7.00;5.60;;;;;;;26.05;58.56;98612.36;238629;1190;138782;-60
2022/07/30 11:10:44;;;;;;;8.50;5.30;;;;;;;26.37;58.65;98609.64;238818;1191;139290;-60
2022/07/30 11:15:58;;;;;;;6.60;5.50;;;;;;;26.67;58.31;98600.37;238555;1190;139385;-59
2022/07/30 11:21:20;;;;;;;6.00;5.00;;;;;;;26.80;57.66;98597.44;238536;1191;139759;-59
2022/07/30 11:26:40;;;;;;;9.00;5.70;;;;;;;26.76;57.20;98595.45;238622;1190;139988;-59
2022/07/30 11:31:44;;;;;;;8.00;5.60;;;;;;;26.71;56.89;98600.52;238743;1190;139573;-60
2022/07/30 11:37:11;;;;;;;6.70;5.10;;;;;;;26.57;56.78;98596.80;238753;1190;139132;-61
2022/07/30 11:42:32;;;;;;;7.20;5.10;;;;;;;26.46;56.90;98598.66;238856;1190;139948;-60
2022/07/30 11:47:36;;;;;;;5.70;4.60;;;;;;;26.39;56.75;98594.81;238514;1190;139446;-60
2022/07/30 11:52:39;;;;;;;6.40;5.20;;;;;;;26.25;56.66;98588.54;238802;1190;139174;-61
2022/07/30 11:57:42;;;;;;;6.30;4.70;;;;;;;26.14;56.60;98575.25;238811;1190;139327;-60
2022/07/30 12:02:48;;;;;;;6.40;5.20;;;;;;;26.20;57.01;98562.84;238805;1190;140924;-60
2022/07/30 12:07:57;;;;;;;5.30;4.80;;;;;;;26.30;56.96;98554.46;238722;1191;139096;-60
2022/07/30 12:13:07;;;;;;;6.50;5.30;;;;;;;26.42;57.18;98546.36;238639;1190;139718;-60
2022/07/30 12:18:12;;;;;;;6.10;5.50;;;;;;;26.46;56.88;98536.22;238764;1190;139761;-60
2022/07/30 12:23:31;;;;;;;8.00;5.10;;;;;;;26.44;56.80;98532.27;238569;1192;139255;-60
2022/07/30 12:28:34;;;;;;;9.20;4.80;;;;;;;26.41;56.86;98534.06;238626;1190;140258;-60
2022/07/30 12:33:37;;;;;;;5.70;5.20;;;;;;;26.49;56.86;98530.77;238637;1190;139562;-60
2022/07/30 12:38:51;;;;;;;5.10;4.60;;;;;;;26.69;57.03;98533.80;238779;1190;238900;-60
2022/07/30 12:43:55;;;;;;;5.40;4.70;;;;;;;26.95;56.69;98538.35;238628;1191;139485;-61
2022/07/30 12:49:01;;;;;;;9.10;5.20;;;;;;;26.97;56.09;98542.92;238328;1192;139259;-58
2022/07/30 12:54:24;;;;;;;7.90;5.10;;;;;;;26.89;55.77;98541.38;238623;1191;139165;-59
2022/07/30 12:59:28;;;;;;;5.80;5.00;;;;;;;26.81;55.55;98533.20;238730;1192;139135;-58
2022/07/30 13:04:31;;;;;;;5.90;4.50;;;;;;;26.73;55.62;98534.92;238530;1190;138945;-59
2022/07/30 13:09:40;;;;;;;6.60;5.00;;;;;;;26.56;55.51;98525.15;238109;1192;140192;-59
2022/07/30 13:14:43;;;;;;;6.90;5.00;;;;;;;26.45;55.73;98519.25;238490;1190;140722;-60
2022/07/30 13:19:45;;;;;;;7.10;5.20;;;;;;;26.41;55.86;98518.91;238709;1190;140915;-59
2022/07/30 13:24:48;;;;;;;8.40;5.60;;;;;;;26.37;55.86;98514.77;238677;1190;140953;-60
2022/07/30 13:29:51;;;;;;;7.40;5.50;;;;;;;26.36;55.94;98511.35;238779;1192;139059;-60
2022/07/30 13:34:54;;;;;;;6.80;5.50;;;;;;;26.35;55.94;98511.98;238695;1191;139469;-59
2022/07/30 13:40:04;;;;;;;7.40;5.20;;;;;;;26.29;55.79;98513.66;238774;1190;139750;-59
2022/07/30 13:48:24;;;;;;;6.90;5.30;;;;;;;25.95;55.54;98512.70;234277;1209;635620;-59
2022/07/30 13:53:28;;;;;;;5.70;4.60;;;;;;;25.67;55.88;98515.35;237258;1195;138663;-60
2022/07/30 13:58:32;;;;;;;5.10;4.20;;;;;;;25.50;55.86;98516.55;236865;1196;139323;-59
2022/07/30 14:03:37;;;;;;;5.80;4.40;;;;;;;25.29;56.22;98519.39;236674;1196;139209;-59
2022/07/30 14:08:42;;;;;;;;;;;;;;;25.11;56.76;98518.45;237286;1196;139055;-59
2022/07/30 14:13:45;;;;;;;5.80;5.10;;;;;;;24.90;56.98;98513.74;237330;1196;126269;-59
2022/07/30 14:18:48;;;;;;;5.60;4.90;;;;;;;24.68;57.23;98510.96;237111;1196;138159;-59
2022/07/30 14:23:51;;;;;;;5.20;4.60;;;;;;;24.53;57.61;98510.90;237123;1196;141825;-60
2022/07/30 14:28:54;;;;;;;7.70;5.60;;;;;;;24.35;57.79;98511.86;236761;1196;139045;-58
2022/07/30 14:33:57;;;;;;;7.60;5.20;;;;;;;24.19;58.15;98503.60;237444;1195;139033;-60
2022/07/30 14:39:03;;;;;;;5.50;4.60;;;;;;;24.07;58.47;98494.83;237035;1196;139460;-59
2022/07/30 14:44:10;;;;;;;6.40;5.30;;;;;;;23.95;58.64;98487.13;236976;1195;139455;-59
2022/07/30 14:49:14;;;;;;;5.90;5.20;;;;;;;23.85;59.00;98489.59;237300;1196;139242;-58
2022/07/30 14:54:17;;;;;;;6.80;4.50;;;;;;;23.84;59.23;98485.42;237640;1195;140037;-59
2022/07/30 14:59:20;;;;;;;6.00;5.40;;;;;;;23.89;59.51;98474.96;237210;1195;139757;-58
2022/07/30 15:04:23;;;;;;;5.30;4.80;;;;;;;23.96;59.67;98479.95;236889;1196;138240;-59
2022/07/30 15:09:26;;;;;;;6.30;5.70;;;;;;;23.96;59.70;98480.96;238087;1193;138657;-58
2022/07/30 15:14:29;;;;;;;6.60;5.60;;;;;;;23.95;59.70;98494.76;238083;1193;138633;-58
2022/07/30 15:19:32;;;;;;;7.10;5.30;;;;;;;23.94;59.75;98505.90;237832;1193;139266;-59
2022/07/30 15:24:35;;;;;;;6.00;4.60;;;;;;;23.95;59.91;98508.72;237692;1193;138177;-57
2022/07/30 15:29:38;;;;;;;6.80;4.70;;;;;;;24.00;60.01;98504.23;238038;1193;139845;-59
2022/07/30 15:34:41;;;;;;;7.80;6.40;;;;;;;24.05;60.11;98498.78;238241;1193;139827;-59
2022/07/30 15:39:44;;;;;;;7.90;5.30;;;;;;;24.10;60.20;98490.46;237864;1193;138855;-58
2022/07/30 15:44:48;;;;;;;8.70;6.10;;;;;;;24.11;60.13;98480.52;237536;1195;139072;-58
2022/07/30 15:50:12;;;;;;;7.30;6.20;;;;;;;24.08;60.25;98471.11;238093;1192;139678;-59
2022/07/30 15:55:15;;;;;;;7.90;6.40;;;;;;;24.03;60.30;98471.71;238232;1192;139466;-57
2022/07/30 16:00:18;;;;;;;7.20;6.50;;;;;;;24.00;60.60;98469.08;237742;1193;139790;-59
2022/07/30 16:05:22;;;;;;;8.10;6.10;;;;;;;24.01;60.56;98467.86;237707;1193;139558;-59
2022/07/30 16:10:25;;;;;;;9.10;7.10;;;;;;;24.02;60.72;98464.30;237951;1193;139821;-58
2022/07/30 16:15:28;;;;;;;9.50;8.00;;;;;;;24.01;60.91;98462.27;237958;1193;138808;-60
2022/07/30 16:20:32;;;;;;;9.50;8.60;;;;;;;23.98;61.13;98458.19;237695;1193;140214;-60
2022/07/30 16:25:35;;;;;;;11.70;9.00;;;;;;;23.92;61.23;98452.52;237701;1193;138633;-59
2022/07/30 16:30:38;;;;;;;12.80;8.50;;;;;;;23.84;61.39;98448.78;238072;1193;139133;-59
2022/07/30 16:35:52;;;;;;;9.50;8.60;;;;;;;23.77;61.46;98451.89;238428;1193;139799;-62
2022/07/30 16:40:55;;;;;;;9.10;8.20;;;;;;;23.75;61.71;98452.84;237832;1193;141716;-60
2022/07/30 16:45:58;;;;;;;9.60;8.40;;;;;;;23.70;61.69;98457.31;237587;1193;140874;-59
2022/07/30 16:51:02;;;;;;;9.90;9.00;;;;;;;23.64;61.79;98460.34;237858;1192;139091;-60
2022/07/30 16:56:05;;;;;;;8.00;7.20;;;;;;;23.56;61.72;98469.06;238375;1192;139258;-60
2022/07/30 17:01:08;;;;;;;7.80;6.00;;;;;;;23.48;61.69;98474.82;237850;1193;138850;-59
2022/07/30 17:06:11;;;;;;;5.60;5.10;;;;;;;23.36;61.66;98476.39;237615;1193;139104;-60
2022/07/30 17:11:15;;;;;;;7.40;5.50;;;;;;;23.23;61.85;98475.02;238009;1193;139242;-59
2022/07/30 17:16:37;;;;;;;6.00;5.40;;;;;;;23.24;62.26;98476.08;238300;1193;138723;-60
2022/07/30 17:21:41;;;;;;;7.00;6.00;;;;;;;23.30;62.48;98479.94;237846;1193;138873;-60
2022/07/30 17:26:45;;;;;;;6.20;5.20;;;;;;;23.33;62.49;98473.23;237419;1195;138988;-59
2022/07/30 17:31:48;;;;;;;6.80;6.10;;;;;;;23.33;62.61;98465.95;237960;1192;140074;-60
2022/07/30 17:36:51;;;;;;;8.70;6.50;;;;;;;23.33;62.73;98458.56;238060;1193;139111;-60
2022/07/30 17:41:54;;;;;;;7.40;6.60;;;;;;;23.33;62.90;98452.13;237868;1193;138568;-59
2022/07/30 17:47:09;;;;;;;8.10;6.60;;;;;;;23.30;62.90;98450.88;237662;1193;139638;-60
2022/07/30 17:52:18;;;;;;;8.00;7.10;;;;;;;23.30;63.09;98451.60;238051;1193;138922;-60
2022/07/30 17:57:28;;;;;;;8.50;7.70;;;;;;;23.29;63.09;98450.92;238128;1193;138897;-60
2022/07/30 18:02:31;;;;;;;10.50;9.20;;;;;;;23.24;63.23;98451.06;237542;1193;139262;-59
2022/07/30 18:07:34;;;;;;;11.00;8.00;;;;;;;23.18;63.29;98449.63;237482;1194;141888;-59
2022/07/30 18:12:37;;;;;;;8.70;7.80;;;;;;;23.13;63.24;98448.21;238118;1193;139728;-59
2022/07/30 18:17:50;;;;;;;8.80;7.70;;;;;;;23.08;63.36;98444.15;238336;1193;139035;-58
2022/07/30 18:22:53;;;;;;;9.50;8.40;;;;;;;23.07;63.54;98447.36;237821;1192;138779;-59
2022/07/30 18:27:56;;;;;;;9.50;8.50;;;;;;;23.05;63.67;98454.64;237458;1193;139517;-59
2022/07/30 18:32:59;;;;;;;9.10;8.20;;;;;;;23.04;63.85;98453.95;237956;1193;139265;-59
2022/07/30 18:38:03;;;;;;;10.10;8.80;;;;;;;23.06;63.89;98455.31;238083;1192;139874;-60
2022/07/30 18:43:05;;;;;;;10.80;9.70;;;;;;;23.09;64.06;98459.98;237723;1193;139259;-59
2022/07/30 18:48:08;;;;;;;10.40;9.40;;;;;;;23.10;64.11;98462.85;237471;1194;138922;-60
2022/07/30 18:53:12;;;;;;;9.00;8.10;;;;;;;23.08;64.05;98460.98;237853;1192;139540;-59
2022/07/30 18:58:17;;;;;;;9.50;7.60;;;;;;;23.06;64.12;98455.48;238251;1193;140060;-60
2022/07/30 19:03:21;;;;;;;11.20;7.70;;;;;;;23.09;64.25;98453.61;238225;1192;139665;-59
2022/07/30 19:08:24;;;;;;;7.70;6.90;;;;;;;23.12;64.29;98453.13;237479;1193;138991;-59
2022/07/30 19:13:28;;;;;;;6.80;6.20;;;;;;;23.09;64.08;98448.05;237952;1193;139501;-60
2022/07/30 19:18:30;;;;;;;8.40;5.70;;;;;;;23.01;63.97;98452.45;238331;1192;230896;-59
2022/07/30 19:23:33;;;;;;;6.20;5.60;;;;;;;22.97;64.06;98447.42;237886;1193;140496;-60
2022/07/30 19:28:37;;;;;;;6.40;5.80;;;;;;;22.95;64.14;98441.80;237532;1193;139379;-60
2022/07/30 19:33:41;;;;;;;7.60;6.50;;;;;;;22.95;64.31;98439.33;238155;1192;139232;-59
2022/07/30 19:38:44;;;;;;;7.90;6.90;;;;;;;22.91;64.27;98437.02;238199;1192;139355;-60
2022/07/30 19:43:47;;;;;;;7.40;5.80;;;;;;;22.85;64.31;98433.04;237867;1193;138761;-59
2022/07/30 19:49:00;;;;;;;7.50;6.60;;;;;;;22.88;64.58;98425.10;237535;1193;140357;-58
2022/07/30 19:54:03;;;;;;;7.30;6.60;;;;;;;22.90;64.52;98419.41;238121;1193;140941;-60
2022/07/30 19:59:09;;;;;;;8.00;7.20;;;;;;;22.80;64.38;98416.79;238209;1193;139619;-58
2022/07/30 20:04:16;;;;;;;8.10;7.30;;;;;;;22.61;64.27;98416.06;238070;1192;230233;-58
2022/07/30 20:09:20;;;;;;;8.30;7.30;;;;;;;22.42;64.40;98419.63;237461;1193;138905;-58
2022/07/30 20:14:23;;;;;;;12.30;7.70;;;;;;;22.34;64.58;98422.97;238003;1193;140135;-59
2022/07/30 20:19:26;;;;;;;9.40;8.50;;;;;;;22.28;64.84;98417.94;238318;1193;139029;-58
2022/07/30 20:24:37;;;;;;;10.40;9.40;;;;;;;22.23;64.99;98409.09;238051;1192;139642;-57
2022/07/30 20:29:40;;;;;;;10.40;9.40;;;;;;;22.20;65.26;98410.98;237831;1193;139500;-58
2022/07/30 20:34:43;;;;;;;9.60;8.70;;;;;;;22.17;65.31;98410.75;237832;1193;138787;-59
2022/07/30 20:39:48;;;;;;;9.70;8.70;;;;;;;22.11;65.34;98408.86;237326;1194;140421;-58
2022/07/30 20:44:52;;;;;;;11.20;10.10;;;;;;;22.10;65.53;98410.55;237840;1193;139623;-59
2022/07/30 20:49:55;;;;;;;11.40;10.30;;;;;;;22.08;65.78;98413.78;238251;1193;138504;-59
2022/07/30 20:55:00;;;;;;;12.20;10.60;;;;;;;22.08;65.97;98413.65;237869;1193;139175;-59
2022/07/30 21:00:07;;;;;;;12.50;8.40;;;;;;;22.09;65.91;98411.88;237772;1194;139190;-58
2022/07/30 21:05:16;;;;;;;10.10;9.10;;;;;;;22.08;65.99;98406.36;237872;1193;139637;-59
2022/07/30 21:10:21;;;;;;;8.90;8.10;;;;;;;22.09;66.07;98404.66;238096;1193;139198;-58
2022/07/30 21:15:26;;;;;;;;;;;;;;;22.04;66.01;98413.01;237867;1193;139192;-59
2022/07/30 21:20:34;;;;;;;9.00;7.90;;;;;;;21.92;65.86;98416.60;237729;1193;125739;-58
2022/07/30 21:25:40;;;;;;;7.90;7.10;;;;;;;21.81;65.92;98421.41;238057;1192;138511;-59
2022/07/30 21:31:03;;;;;;;7.50;6.70;;;;;;;21.69;65.92;98411.67;238337;1192;140894;-58
2022/07/30 21:36:09;;;;;;;8.90;7.80;;;;;;;21.58;65.90;98414.88;237939;1192;140456;-59
2022/07/30 21:41:32;;;;;;;7.50;6.70;;;;;;;21.54;66.10;98417.89;237621;1194;141339;-59
2022/07/30 21:46:43;;;;;;;7.40;6.60;;;;;;;21.50;66.07;98416.04;238167;1192;138881;-58
2022/07/30 21:51:46;;;;;;;6.10;5.50;;;;;;;21.45;66.02;98409.48;238660;1191;139288;-58
2022/07/30 21:56:49;;;;;;;6.30;5.40;;;;;;;21.41;66.03;98408.57;238450;1192;140158;-59
2022/07/30 22:01:52;;;;;;;6.60;5.20;;;;;;;21.37;66.04;98414.86;238293;1192;140935;-59
2022/07/30 22:06:58;;;;;;;6.00;5.40;;;;;;;21.35;66.20;98411.11;238385;1192;139198;-58
2022/07/30 22:12:04;;;;;;;5.60;5.10;;;;;;;21.30;66.22;98405.84;238778;1191;138205;-59
2022/07/30 22:17:13;;;;;;;6.10;5.20;;;;;;;21.24;66.01;98399.89;238414;1192;139274;-58
2022/07/30 22:22:33;;;;;;;5.80;4.90;;;;;;;21.17;65.99;98393.10;238230;1191;139453;-59
2022/07/30 22:27:41;;;;;;;6.30;5.60;;;;;;;21.14;66.11;98386.80;238506;1191;139446;-58
2022/07/30 22:33:07;;;;;;;6.60;5.70;;;;;;;21.10;66.07;98380.45;238630;1191;139242;-59
2022/07/30 22:38:10;;;;;;;7.80;7.00;;;;;;;21.00;66.15;98379.74;238336;1190;139854;-59
2022/07/30 22:43:13;;;;;;;7.90;6.70;;;;;;;20.91;66.21;98376.14;238191;1192;139402;-59
2022/07/30 22:48:17;;;;;;;6.60;5.90;;;;;;;20.90;66.32;98372.33;238667;1191;139883;-60
2022/07/30 22:53:27;;;;;;;7.00;6.30;;;;;;;20.88;66.37;98366.20;238819;1191;139234;-58
2022/07/30 22:58:50;;;;;;;9.10;7.90;;;;;;;20.81;66.49;98363.91;238063;1193;138575;-58
2022/07/30 23:03:53;;;;;;;9.80;8.80;;;;;;;20.74;66.52;98361.44;238220;1192;138892;-59
2022/07/30 23:08:56;;;;;;;12.30;9.00;;;;;;;20.67;66.55;98358.67;238483;1192;139008;-58
2022/07/30 23:13:59;;;;;;;11.20;7.60;;;;;;;20.61;66.45;98352.91;238621;1192;140343;-59
2022/07/30 23:19:03;;;;;;;11.70;8.60;;;;;;;20.50;66.29;98350.29;238513;1192;139893;-58
2022/07/30 23:24:06;;;;;;;13.60;10.80;;;;;;;20.39;66.50;98351.23;238554;1192;139015;-57
2022/07/30 23:29:12;;;;;;;17.30;13.40;;;;;;;20.29;66.55;98350.17;238066;1192;139285;-58
2022/07/30 23:34:17;;;;;;;22.00;15.50;;;;;;;20.19;66.71;98341.05;237952;1193;140136;-58
2022/07/30 23:39:20;;;;;;;24.00;17.10;;;;;;;20.17;66.85;98337.14;238612;1191;141362;-59
2022/07/30 23:44:23;;;;;;;23.00;17.20;;;;;;;20.14;66.93;98332.12;238631;1191;139485;-57